createdAt,value
2018-09-13T00:00:05.488Z,16.50
2018-09-13T00:02:33.787Z,16.40
2018-09-13T00:05:02.113Z,16.40
2018-09-13T00:07:30.412Z,16.30
2018-09-13T00:09:58.749Z,16.20
2018-09-13T00:12:27.043Z,16.10
2018-09-13T00:14:55.356Z,16.30
2018-09-13T00:17:23.654Z,16.40
2018-09-13T00:19:51.967Z,16.50
2018-09-13T00:22:20.279Z,16.30
2018-09-13T00:24:48.591Z,16.30
2018-09-13T00:27:16.892Z,16.40
2018-09-13T00:29:45.220Z,16.40
2018-09-13T00:32:13.523Z,16.40
2018-09-13T00:34:41.843Z,16.30
2018-09-13T00:37:10.144Z,16.20
2018-09-13T00:39:38.458Z,16.10
2018-09-13T00:42:06.792Z,16.00
2018-09-13T00:44:35.113Z,15.90
2018-09-13T00:47:08.656Z,16.00
2018-09-13T00:49:36.971Z,16.00
2018-09-13T00:52:05.280Z,16.00
2018-09-13T00:54:33.592Z,16.00
2018-09-13T00:57:01.926Z,16.20
2018-09-13T00:59:30.224Z,16.40
2018-09-13T01:01:58.601Z,16.50
2018-09-13T01:04:26.936Z,16.60
2018-09-13T01:06:55.228Z,16.50
2018-09-13T01:09:23.528Z,16.20
2018-09-13T01:11:51.864Z,16.10
2018-09-13T01:14:20.156Z,16.10
2018-09-13T01:16:48.483Z,15.90
2018-09-13T01:19:16.780Z,15.90
2018-09-13T01:21:45.096Z,15.80
2018-09-13T01:24:13.388Z,15.70
2018-09-13T01:26:41.704Z,15.60
2018-09-13T01:29:10.000Z,15.50
2018-09-13T01:31:38.324Z,15.60
2018-09-13T01:34:06.664Z,15.80
2018-09-13T01:36:35.013Z,15.80
2018-09-13T01:39:04.117Z,15.80
2018-09-13T01:41:32.432Z,15.90
2018-09-13T01:44:00.730Z,15.80
2018-09-13T01:46:29.039Z,15.70
2018-09-13T01:48:57.333Z,15.70
2018-09-13T01:51:25.663Z,15.60
2018-09-13T01:53:53.951Z,15.60
2018-09-13T01:56:22.268Z,15.60
2018-09-13T01:58:50.665Z,15.70
2018-09-13T02:01:18.980Z,15.70
2018-09-13T02:03:47.289Z,15.50
2018-09-13T02:06:15.612Z,15.50
2018-09-13T02:08:43.903Z,15.30
2018-09-13T02:11:12.257Z,15.30
2018-09-13T02:13:40.561Z,15.30
2018-09-13T02:16:08.883Z,15.30
2018-09-13T02:18:37.176Z,15.30
2018-09-13T02:21:05.652Z,15.20
2018-09-13T02:23:33.963Z,15.30
2018-09-13T02:26:02.285Z,15.30
2018-09-13T02:28:30.584Z,15.30
2018-09-13T02:30:58.898Z,15.30
2018-09-13T02:33:27.276Z,15.40
2018-09-13T02:35:55.596Z,15.40
2018-09-13T02:38:23.896Z,15.40
2018-09-13T02:40:52.204Z,15.50
2018-09-13T02:43:20.756Z,15.60
2018-09-13T02:45:49.078Z,15.70
2018-09-13T02:48:17.373Z,15.60
2018-09-13T02:50:45.697Z,15.40
2018-09-13T02:53:13.992Z,15.30
2018-09-13T02:55:42.311Z,15.20
2018-09-13T02:58:10.636Z,15.20
2018-09-13T03:00:38.956Z,15.20
2018-09-13T03:03:07.263Z,15.20
2018-09-13T03:05:35.586Z,15.20
2018-09-13T03:08:03.893Z,15.30
2018-09-13T03:10:32.236Z,15.30
2018-09-13T03:13:00.533Z,15.40
2018-09-13T03:15:28.847Z,15.30
2018-09-13T03:17:57.149Z,15.30
2018-09-13T03:20:25.454Z,15.40
2018-09-13T03:22:53.771Z,15.50
2018-09-13T03:25:22.084Z,15.50
2018-09-13T03:27:50.445Z,15.50
2018-09-13T03:30:18.763Z,15.40
2018-09-13T03:32:47.086Z,15.40
2018-09-13T03:35:15.388Z,15.30
2018-09-13T03:37:43.712Z,15.40
2018-09-13T03:40:12.025Z,15.30
2018-09-13T03:42:40.349Z,15.40
2018-09-13T03:45:08.653Z,15.40
2018-09-13T03:47:36.975Z,15.30
2018-09-13T03:50:05.312Z,15.20
2018-09-13T03:52:33.642Z,15.10
2018-09-13T03:55:01.956Z,15.10
2018-09-13T03:57:30.326Z,15.10
2018-09-13T03:59:58.688Z,15.00
2018-09-13T04:02:27.036Z,15.10
2018-09-13T04:04:55.324Z,15.10
2018-09-13T04:07:23.636Z,15.10
2018-09-13T04:09:51.956Z,15.00
2018-09-13T04:12:20.620Z,14.90
2018-09-13T04:14:48.943Z,15.00
2018-09-13T04:17:17.268Z,15.10
2018-09-13T04:19:46.498Z,14.90
2018-09-13T04:22:15.724Z,14.90
2018-09-13T04:24:44.503Z,14.80
2018-09-13T04:27:13.225Z,14.80
2018-09-13T04:29:41.905Z,14.90
2018-09-13T04:32:10.225Z,14.90
2018-09-13T04:34:38.687Z,14.90
2018-09-13T04:37:07.069Z,14.80
2018-09-13T04:39:35.372Z,14.80
2018-09-13T04:42:03.695Z,14.80
2018-09-13T04:44:32.028Z,14.70
2018-09-13T04:47:00.357Z,14.90
2018-09-13T04:49:28.662Z,14.90
2018-09-13T04:51:56.983Z,14.90
2018-09-13T04:54:25.312Z,15.20
2018-09-13T04:56:53.629Z,15.70
2018-09-13T04:59:21.936Z,15.90
2018-09-13T05:01:50.252Z,15.90
2018-09-13T05:04:18.553Z,16.20
2018-09-13T05:06:46.880Z,16.40
2018-09-13T05:09:15.239Z,16.40
2018-09-13T05:11:43.576Z,16.40
2018-09-13T05:14:11.876Z,16.30
2018-09-13T05:16:40.196Z,16.40
2018-09-13T05:19:08.500Z,16.50
2018-09-13T05:21:36.828Z,16.50
2018-09-13T05:24:05.160Z,16.60
2018-09-13T05:26:33.479Z,16.70
2018-09-13T05:29:01.795Z,16.80
2018-09-13T05:31:30.176Z,16.90
2018-09-13T05:33:58.713Z,17.10
2018-09-13T05:36:27.014Z,17.10
2018-09-13T05:38:55.475Z,17.00
2018-09-13T05:41:23.780Z,17.10
2018-09-13T05:43:52.091Z,16.90
2018-09-13T05:46:20.398Z,16.50
2018-09-13T05:48:48.728Z,16.40
2018-09-13T05:51:17.079Z,16.30
2018-09-13T05:53:45.379Z,16.10
2018-09-13T05:56:13.676Z,15.90
2018-09-13T05:58:41.996Z,15.80
2018-09-13T06:01:10.405Z,16.00
2018-09-13T06:03:38.728Z,16.20
2018-09-13T06:06:07.041Z,16.50
2018-09-13T06:08:35.358Z,16.80
2018-09-13T06:11:03.681Z,17.10
2018-09-13T06:13:32.026Z,17.30
2018-09-13T06:16:00.342Z,17.30
2018-09-13T06:18:28.664Z,17.40
2018-09-13T06:20:56.972Z,17.20
2018-09-13T06:23:25.300Z,17.00
2018-09-13T06:25:53.608Z,17.10
2018-09-13T06:28:21.946Z,17.10
2018-09-13T06:30:50.244Z,17.10
2018-09-13T06:33:18.570Z,16.70
2018-09-13T06:35:46.880Z,16.50
2018-09-13T06:38:15.215Z,16.40
2018-09-13T06:40:43.533Z,16.30
2018-09-13T06:43:11.863Z,16.30
2018-09-13T06:45:40.176Z,16.50
2018-09-13T06:48:08.501Z,16.60
2018-09-13T06:50:36.809Z,16.60
2018-09-13T06:53:05.140Z,16.70
2018-09-13T06:55:33.440Z,16.90
2018-09-13T06:58:01.756Z,17.20
2018-09-13T07:00:30.120Z,17.30
2018-09-13T07:02:58.437Z,17.40
2018-09-13T07:05:26.999Z,17.50
2018-09-13T07:07:55.343Z,17.70
2018-09-13T07:10:23.664Z,17.80
2018-09-13T07:12:51.983Z,17.90
2018-09-13T07:15:20.304Z,17.70
2018-09-13T07:17:48.624Z,17.80
2018-09-13T07:20:16.932Z,17.50
2018-09-13T07:22:45.262Z,17.40
2018-09-13T07:25:13.661Z,17.10
2018-09-13T07:27:42.010Z,17.00
2018-09-13T07:30:10.318Z,17.00
2018-09-13T07:32:38.652Z,17.10
2018-09-13T07:35:06.948Z,17.40
2018-09-13T07:37:35.305Z,17.70
2018-09-13T07:40:03.627Z,17.90
2018-09-13T07:42:32.124Z,18.10
2018-09-13T07:45:00.383Z,17.90
2018-09-13T07:47:28.680Z,17.90
2018-09-13T07:49:57.116Z,17.90
2018-09-13T07:52:25.372Z,17.90
2018-09-13T07:54:53.699Z,17.70
2018-09-13T07:57:22.004Z,17.60
2018-09-13T07:59:50.328Z,17.60
2018-09-13T08:02:18.622Z,17.70
2018-09-13T08:04:46.936Z,17.80
2018-09-13T08:07:15.249Z,17.90
2018-09-13T08:09:43.580Z,17.90
2018-09-13T08:12:12.041Z,18.00
2018-09-13T08:14:40.448Z,18.10
2018-09-13T08:17:08.766Z,18.10
2018-09-13T08:19:37.076Z,18.00
2018-09-13T08:22:05.457Z,18.10
2018-09-13T08:24:33.750Z,18.10
2018-09-13T08:27:02.062Z,18.10
2018-09-13T08:29:30.400Z,18.40
2018-09-13T08:31:58.716Z,18.60
2018-09-13T08:34:27.042Z,18.70
2018-09-13T08:36:55.390Z,18.60
2018-09-13T08:39:23.703Z,18.50
2018-09-13T08:41:52.012Z,18.30
2018-09-13T08:44:20.381Z,17.90
2018-09-13T08:46:48.688Z,17.70
2018-09-13T08:49:17.011Z,17.50
2018-09-13T08:51:45.320Z,17.40
2018-09-13T08:54:13.640Z,17.40
2018-09-13T08:56:41.940Z,17.70
2018-09-13T08:59:10.279Z,17.90
2018-09-13T09:01:38.584Z,18.10
2018-09-13T09:04:06.913Z,18.30
2018-09-13T09:06:35.317Z,18.10
2018-09-13T09:09:04.167Z,18.20
2018-09-13T09:11:32.560Z,18.20
2018-09-13T09:14:00.825Z,18.20
2018-09-13T09:16:29.136Z,18.20
2018-09-13T09:18:57.460Z,18.30
2018-09-13T09:21:25.774Z,18.20
2018-09-13T09:23:54.105Z,18.00
2018-09-13T09:26:22.408Z,17.90
2018-09-13T09:28:50.848Z,18.10
2018-09-13T09:31:19.184Z,18.20
2018-09-13T09:33:47.514Z,18.40
2018-09-13T09:36:15.836Z,18.50
2018-09-13T09:38:44.160Z,18.70
2018-09-13T09:41:12.514Z,18.80
2018-09-13T09:43:40.807Z,18.90
2018-09-13T09:46:09.111Z,18.60
2018-09-13T09:48:37.460Z,18.50
2018-09-13T09:51:05.765Z,18.60
2018-09-13T09:53:34.088Z,18.70
2018-09-13T09:56:02.415Z,18.80
2018-09-13T09:58:30.720Z,18.90
2018-09-13T10:01:04.544Z,18.90
2018-09-13T10:03:32.844Z,19.00
2018-09-13T10:06:01.156Z,18.90
2018-09-13T10:08:29.453Z,19.00
2018-09-13T10:10:58.032Z,18.80
2018-09-13T10:13:26.334Z,18.70
2018-09-13T10:16:00.071Z,18.70
2018-09-13T10:18:33.992Z,18.60
2018-09-13T10:22:10.667Z,18.30
2018-09-13T10:24:44.531Z,18.20
2018-09-13T10:27:18.260Z,18.20
2018-09-13T10:29:52.668Z,18.20
2018-09-13T10:32:26.494Z,18.30
2018-09-13T10:35:00.424Z,18.00
2018-09-13T10:37:34.154Z,17.50
2018-09-13T10:40:07.812Z,17.10
2018-09-13T10:42:41.483Z,16.70
2018-09-13T10:45:15.140Z,16.60
2018-09-13T10:48:46.484Z,16.60
2018-09-13T10:51:20.776Z,16.60
2018-09-13T10:53:58.479Z,16.60
2018-09-13T10:56:27.143Z,16.70
2018-09-13T10:58:55.454Z,16.80
2018-09-13T11:01:23.780Z,16.90
2018-09-13T11:03:52.745Z,16.90
2018-09-13T11:06:21.080Z,16.90
2018-09-13T11:08:49.404Z,16.90
2018-09-13T11:11:17.772Z,16.90
2018-09-13T11:15:54.102Z,16.90
2018-09-13T11:18:22.414Z,16.80
2018-09-13T11:20:50.741Z,16.90
2018-09-13T11:23:19.043Z,16.90
2018-09-13T11:25:47.359Z,16.90
2018-09-13T11:28:15.659Z,16.90
2018-09-13T11:30:44.064Z,17.00
2018-09-13T11:33:12.315Z,17.10
2018-09-13T11:35:40.644Z,17.20
2018-09-13T11:38:08.944Z,17.20
2018-09-13T11:40:37.399Z,17.30
2018-09-13T11:43:05.579Z,17.20
2018-09-13T11:45:33.892Z,17.20
2018-09-13T11:48:02.197Z,17.20
2018-09-13T11:50:30.540Z,17.20
2018-09-13T11:52:58.839Z,17.30
2018-09-13T11:55:27.187Z,17.40
2018-09-13T11:57:55.496Z,17.50
2018-09-13T12:00:23.824Z,17.70
2018-09-13T12:02:52.133Z,17.70
2018-09-13T12:05:20.448Z,17.70
2018-09-13T12:07:48.753Z,17.70
2018-09-13T12:10:17.087Z,17.70
2018-09-13T12:12:45.389Z,17.80
2018-09-13T12:15:13.704Z,17.90
2018-09-13T12:17:42.008Z,18.10
2018-09-13T12:20:10.328Z,18.20
2018-09-13T12:22:39.526Z,18.30
2018-09-13T12:25:07.812Z,18.50
2018-09-13T12:27:36.193Z,18.60
2018-09-13T12:30:04.939Z,18.80
2018-09-13T12:32:33.358Z,18.80
2018-09-13T12:35:01.682Z,18.60
2018-09-13T12:37:29.986Z,18.60
2018-09-13T12:39:58.304Z,18.80
2018-09-13T12:42:26.602Z,18.70
2018-09-13T12:44:54.932Z,18.60
2018-09-13T12:47:23.240Z,18.60
2018-09-13T12:49:51.634Z,18.40
2018-09-13T12:52:19.973Z,18.40
2018-09-13T12:54:48.252Z,18.60
2018-09-13T12:57:16.571Z,18.70
2018-09-13T12:59:44.927Z,18.70
2018-09-13T13:02:13.216Z,18.70
2018-09-13T13:04:41.516Z,18.70
2018-09-13T13:07:09.827Z,18.70
2018-09-13T13:09:38.120Z,18.50
2018-09-13T13:12:06.540Z,18.60
2018-09-13T13:14:34.852Z,18.60
2018-09-13T13:17:03.289Z,18.60
2018-09-13T13:19:31.528Z,18.70
2018-09-13T13:21:59.845Z,18.70
2018-09-13T13:24:28.140Z,18.80
2018-09-13T13:26:56.491Z,18.80
2018-09-13T13:29:24.780Z,18.80
2018-09-13T13:31:53.096Z,18.80
2018-09-13T13:34:21.404Z,18.70
2018-09-13T13:36:49.716Z,18.60
2018-09-13T13:39:18.016Z,18.50
2018-09-13T13:41:46.332Z,18.60
2018-09-13T13:44:14.624Z,18.50
2018-09-13T13:46:42.961Z,18.40
2018-09-13T13:49:11.260Z,18.40
2018-09-13T13:51:39.587Z,18.30
2018-09-13T13:54:07.884Z,18.20
2018-09-13T13:56:36.201Z,18.20
2018-09-13T13:59:04.528Z,18.00
2018-09-13T14:01:32.852Z,17.80
2018-09-13T14:04:01.152Z,17.80
2018-09-13T14:06:29.529Z,17.70
2018-09-13T14:08:57.840Z,17.70
2018-09-13T14:11:26.183Z,17.70
2018-09-13T14:13:54.488Z,17.70
2018-09-13T14:16:22.812Z,17.80
2018-09-13T14:18:51.115Z,17.70
2018-09-13T14:21:19.451Z,17.70
2018-09-13T14:23:47.764Z,17.60
2018-09-13T14:26:16.064Z,17.60
2018-09-13T14:28:44.388Z,17.50
2018-09-13T14:31:12.689Z,17.30
2018-09-13T14:33:41.009Z,17.20
2018-09-13T14:36:09.359Z,17.10
2018-09-13T14:38:37.680Z,17.00
2018-09-13T14:41:06.243Z,17.20
2018-09-13T14:43:34.575Z,17.20
2018-09-13T14:46:03.027Z,17.20
2018-09-13T14:48:31.236Z,17.20
2018-09-13T14:50:59.544Z,17.20
2018-09-13T14:53:27.867Z,17.20
2018-09-13T14:55:56.181Z,17.10
2018-09-13T14:58:24.495Z,17.00
2018-09-13T15:00:52.799Z,17.10
2018-09-13T15:03:21.119Z,17.10
2018-09-13T15:05:49.425Z,17.10
2018-09-13T15:08:17.751Z,17.10
2018-09-13T15:10:46.076Z,17.10
2018-09-13T15:13:14.413Z,17.20
2018-09-13T15:15:42.712Z,17.30
2018-09-13T15:18:11.112Z,17.20
2018-09-13T15:20:39.576Z,17.20
2018-09-13T15:23:07.896Z,17.20
2018-09-13T15:25:36.196Z,17.20
2018-09-13T15:28:04.519Z,17.10
2018-09-13T15:30:32.896Z,17.10
2018-09-13T15:33:01.211Z,17.10
2018-09-13T15:35:29.556Z,17.00
2018-09-13T15:37:57.884Z,17.20
2018-09-13T15:40:26.185Z,17.10
2018-09-13T15:42:54.521Z,17.20
2018-09-13T15:45:22.843Z,17.20
2018-09-13T15:47:51.177Z,17.30
2018-09-13T15:50:19.478Z,17.20
2018-09-13T15:52:47.867Z,17.20
2018-09-13T15:55:16.140Z,17.10
2018-09-13T15:57:44.456Z,17.10
2018-09-13T16:00:12.776Z,17.10
2018-09-13T16:02:41.105Z,17.10
2018-09-13T16:05:09.517Z,17.10
2018-09-13T16:07:37.840Z,17.10
2018-09-13T16:10:06.650Z,17.10
2018-09-13T16:12:35.034Z,17.00
2018-09-13T16:15:03.313Z,16.80
2018-09-13T16:17:31.612Z,16.80
2018-09-13T16:19:59.996Z,16.70
2018-09-13T16:22:28.252Z,16.60
2018-09-13T16:24:56.580Z,16.60
2018-09-13T16:27:24.936Z,16.60
2018-09-13T16:29:53.307Z,16.80
2018-09-13T16:32:23.308Z,16.90
2018-09-13T16:34:52.501Z,16.90
2018-09-13T16:37:26.117Z,16.90
2018-09-13T16:40:04.918Z,17.00
2018-09-13T16:42:44.400Z,17.00
2018-09-13T16:45:12.784Z,17.00
2018-09-13T16:47:46.405Z,16.90
2018-09-13T16:50:14.824Z,16.80
2018-09-13T16:52:43.147Z,16.60
2018-09-13T16:55:11.476Z,16.70
2018-09-13T16:57:39.788Z,16.80
2018-09-13T17:00:08.108Z,16.60
2018-09-13T17:02:36.472Z,16.70
2018-09-13T17:05:04.864Z,16.80
2018-09-13T17:07:33.316Z,16.80
2018-09-13T17:10:01.658Z,16.80
2018-09-13T17:12:29.965Z,16.70
2018-09-13T17:14:58.284Z,16.50
2018-09-13T17:17:26.596Z,16.70
2018-09-13T17:19:54.924Z,16.80
2018-09-13T17:22:23.256Z,16.80
2018-09-13T17:24:51.591Z,16.70
2018-09-13T17:27:19.936Z,16.60
2018-09-13T17:29:48.260Z,16.70
2018-09-13T17:32:16.560Z,16.50
2018-09-13T17:34:44.880Z,16.40
2018-09-13T17:37:13.184Z,16.30
2018-09-13T17:39:41.680Z,16.30
2018-09-13T17:42:09.984Z,16.40
2018-09-13T17:44:38.312Z,16.40
2018-09-13T17:47:06.603Z,16.30
2018-09-13T17:49:34.961Z,16.30
2018-09-13T17:52:03.269Z,16.30
2018-09-13T17:54:31.588Z,16.20
2018-09-13T17:56:59.960Z,16.20
2018-09-13T17:59:28.279Z,16.20
2018-09-13T18:01:56.584Z,16.10
2018-09-13T18:04:24.907Z,16.10
2018-09-13T18:06:53.259Z,16.00
2018-09-13T18:09:21.597Z,16.00
2018-09-13T18:11:49.919Z,16.00
2018-09-13T18:14:18.237Z,16.00
2018-09-13T18:16:46.544Z,15.90
2018-09-13T18:19:14.864Z,15.90
2018-09-13T18:21:43.191Z,15.90
2018-09-13T18:24:11.621Z,15.90
2018-09-13T18:26:39.932Z,15.90
2018-09-13T18:29:08.259Z,15.90
2018-09-13T18:31:36.573Z,15.90
2018-09-13T18:34:04.906Z,15.90
2018-09-13T18:36:33.232Z,15.90
2018-09-13T18:39:01.565Z,15.90
2018-09-13T18:41:29.904Z,15.90
2018-09-13T18:43:58.240Z,15.90
2018-09-13T18:46:26.548Z,15.90
2018-09-13T18:48:54.889Z,15.90
2018-09-13T18:51:23.196Z,15.90
2018-09-13T18:53:51.744Z,15.90
2018-09-13T18:56:19.960Z,15.90
2018-09-13T18:58:48.268Z,16.00
2018-09-13T19:01:16.602Z,15.80
2018-09-13T19:03:44.905Z,15.80
2018-09-13T19:06:13.220Z,15.80
2018-09-13T19:08:41.520Z,15.80
2018-09-13T19:11:09.926Z,15.80
2018-09-13T19:13:38.236Z,15.80
2018-09-13T19:16:06.789Z,15.80
2018-09-13T19:18:35.111Z,16.00
2018-09-13T19:21:03.433Z,15.90
2018-09-13T19:23:31.735Z,16.00
2018-09-13T19:26:00.065Z,16.10
2018-09-13T19:28:28.368Z,16.20
2018-09-13T19:30:56.743Z,16.20
2018-09-13T19:33:25.027Z,16.30
2018-09-13T19:35:53.344Z,16.40
2018-09-13T19:38:22.033Z,16.50
2018-09-13T19:40:50.392Z,16.60
2018-09-13T19:43:18.705Z,16.70
2018-09-13T19:45:47.020Z,16.60
2018-09-13T19:48:15.417Z,16.60
2018-09-13T19:50:43.801Z,16.60
2018-09-13T19:53:12.118Z,16.60
2018-09-13T19:55:40.428Z,16.70
2018-09-13T19:58:08.736Z,16.70
2018-09-13T20:00:37.056Z,16.70
2018-09-13T20:03:05.440Z,16.60
2018-09-13T20:05:33.808Z,16.50
2018-09-13T20:08:02.108Z,16.50
2018-09-13T20:10:30.452Z,16.50
2018-09-13T20:12:58.748Z,16.40
2018-09-13T20:15:27.195Z,16.40
2018-09-13T20:17:55.523Z,16.20
2018-09-13T20:20:23.861Z,16.00
2018-09-13T20:22:52.169Z,16.00
2018-09-13T20:25:20.631Z,16.00
2018-09-13T20:27:49.102Z,15.90
2018-09-13T20:30:17.517Z,15.80
2018-09-13T20:32:45.820Z,15.60
2018-09-13T20:35:14.144Z,15.40
2018-09-13T20:37:42.444Z,15.40
2018-09-13T20:40:10.761Z,15.60
2018-09-13T20:42:39.082Z,15.60
2018-09-13T20:45:07.452Z,15.70
2018-09-13T20:47:35.764Z,15.80
2018-09-13T20:50:04.153Z,15.90
2018-09-13T20:52:32.492Z,15.70
2018-09-13T20:55:00.841Z,15.70
2018-09-13T20:57:29.152Z,15.60
2018-09-13T20:59:57.475Z,15.60
2018-09-13T21:02:25.776Z,15.50
2018-09-13T21:04:54.102Z,15.70
2018-09-13T21:07:22.405Z,15.90
2018-09-13T21:09:50.726Z,16.10
2018-09-13T21:12:19.045Z,16.20
2018-09-13T21:14:47.359Z,16.20
2018-09-13T21:17:15.921Z,16.30
2018-09-13T21:19:44.526Z,16.20
2018-09-13T21:22:12.896Z,16.10
2018-09-13T21:24:41.199Z,15.90
2018-09-13T21:27:09.528Z,15.90
2018-09-13T21:29:37.864Z,15.90
2018-09-13T21:32:06.193Z,15.80
2018-09-13T21:34:34.496Z,15.80
2018-09-13T21:37:02.891Z,15.70
2018-09-13T21:39:31.204Z,15.50
2018-09-13T21:41:59.553Z,15.30
2018-09-13T21:44:27.929Z,15.20
2018-09-13T21:46:56.225Z,15.20
2018-09-13T21:49:24.537Z,15.30
2018-09-13T21:51:52.860Z,15.20
2018-09-13T21:54:21.156Z,15.30
2018-09-13T21:56:49.476Z,15.40
2018-09-13T21:59:17.775Z,15.50
2018-09-13T22:01:46.101Z,15.50
2018-09-13T22:04:14.409Z,15.50
2018-09-13T22:06:42.742Z,15.40
2018-09-13T22:09:11.052Z,15.50
2018-09-13T22:11:40.523Z,15.40
2018-09-13T22:14:08.824Z,15.50
2018-09-13T22:16:37.148Z,15.50
2018-09-13T22:19:05.464Z,15.50
2018-09-13T22:21:34.274Z,15.30
2018-09-13T22:24:02.985Z,15.20
2018-09-13T22:26:31.337Z,15.30
2018-09-13T22:28:59.682Z,15.10
2018-09-13T22:31:27.997Z,14.90
2018-09-13T22:33:56.668Z,14.80
2018-09-13T22:36:25.023Z,14.80
2018-09-13T22:38:53.326Z,14.80
2018-09-13T22:41:21.661Z,14.70
2018-09-13T22:43:50.767Z,14.60
2018-09-13T22:46:20.268Z,14.50
2018-09-13T22:48:48.780Z,14.50
2018-09-13T22:51:17.355Z,14.50
2018-09-13T22:53:45.694Z,14.50
2018-09-13T22:56:14.348Z,14.50
2018-09-13T22:58:42.648Z,14.50
2018-09-13T23:01:10.973Z,14.40
2018-09-13T23:03:39.283Z,14.40
2018-09-13T23:06:07.609Z,14.50
2018-09-13T23:08:35.912Z,14.30
2018-09-13T23:11:04.293Z,14.40
2018-09-13T23:13:32.695Z,14.40
2018-09-13T23:16:01.154Z,14.40
2018-09-13T23:18:29.444Z,14.40
2018-09-13T23:20:57.764Z,14.40
2018-09-13T23:23:26.076Z,14.50
2018-09-13T23:25:54.399Z,14.50
2018-09-13T23:28:22.729Z,14.50
2018-09-13T23:30:51.515Z,14.40
2018-09-13T23:33:19.831Z,14.40
2018-09-13T23:35:48.225Z,14.50
2018-09-13T23:38:16.545Z,14.50
2018-09-13T23:40:44.934Z,14.50
2018-09-13T23:43:13.224Z,14.60
2018-09-13T23:45:41.530Z,14.60
2018-09-13T23:48:09.852Z,14.80
2018-09-13T23:50:38.160Z,14.80
2018-09-13T23:53:06.508Z,14.80
2018-09-13T23:55:34.813Z,14.70
2018-09-13T23:58:03.186Z,14.60
